sensor_id;sensor_type;location;lat;lon;timestamp;P1;durP1;ratioP1;P2;durP2;ratioP2
3329;SDS011;1677;49.576;10.990;2022-07-22T00:02:15;7.93;;;7.13;;
3329;SDS011;1677;49.576;10.990;2022-07-22T00:04:41;8.63;;;7.53;;
3329;SDS011;1677;49.576;10.990;2022-07-22T00:07:06;9.10;;;7.03;;
3329;SDS011;1677;49.576;10.990;2022-07-22T00:09:32;7.97;;;7.17;;
3329;SDS011;1677;49.576;10.990;2022-07-22T00:11:58;9.17;;;8.27;;
3329;SDS011;1677;49.576;10.990;2022-07-22T00:14:24;8.37;;;7.53;;
3329;SDS011;1677;49.576;10.990;2022-07-22T00:16:49;8.07;;;7.27;;
3329;SDS011;1677;49.576;10.990;2022-07-22T00:19:15;9.47;;;8.47;;
3329;SDS011;1677;49.576;10.990;2022-07-22T00:21:41;7.77;;;6.97;;
3329;SDS011;1677;49.576;10.990;2022-07-22T00:24:06;9.30;;;8.40;;
3329;SDS011;1677;49.576;10.990;2022-07-22T00:26:32;11.30;;;8.43;;
3329;SDS011;1677;49.576;10.990;2022-07-22T00:28:58;8.87;;;8.03;;
3329;SDS011;1677;49.576;10.990;2022-07-22T00:31:24;9.23;;;7.13;;
3329;SDS011;1677;49.576;10.990;2022-07-22T00:33:49;11.70;;;8.33;;
3329;SDS011;1677;49.576;10.990;2022-07-22T00:36:15;8.30;;;7.60;;
3329;SDS011;1677;49.576;10.990;2022-07-22T00:38:40;8.27;;;7.37;;
3329;SDS011;1677;49.576;10.990;2022-07-22T00:41:06;7.90;;;7.03;;
3329;SDS011;1677;49.576;10.990;2022-07-22T00:46:24;8.70;;;7.47;;
3329;SDS011;1677;49.576;10.990;2022-07-22T00:48:51;7.63;;;6.93;;
3329;SDS011;1677;49.576;10.990;2022-07-22T00:51:17;8.10;;;7.30;;
3329;SDS011;1677;49.576;10.990;2022-07-22T00:53:45;8.30;;;7.10;;
3329;SDS011;1677;49.576;10.990;2022-07-22T00:56:11;9.63;;;7.53;;
3329;SDS011;1677;49.576;10.990;2022-07-22T00:58:37;8.00;;;7.40;;
3329;SDS011;1677;49.576;10.990;2022-07-22T01:01:03;9.13;;;8.23;;
3329;SDS011;1677;49.576;10.990;2022-07-22T01:03:28;9.53;;;8.60;;
3329;SDS011;1677;49.576;10.990;2022-07-22T01:05:54;8.80;;;8.00;;
3329;SDS011;1677;49.576;10.990;2022-07-22T01:08:20;8.47;;;7.67;;
3329;SDS011;1677;49.576;10.990;2022-07-22T01:10:45;11.90;;;7.77;;
3329;SDS011;1677;49.576;10.990;2022-07-22T01:13:11;9.23;;;7.47;;
3329;SDS011;1677;49.576;10.990;2022-07-22T01:15:37;7.90;;;7.23;;
3329;SDS011;1677;49.576;10.990;2022-07-22T01:18:02;9.07;;;8.27;;
3329;SDS011;1677;49.576;10.990;2022-07-22T01:20:29;9.53;;;8.27;;
3329;SDS011;1677;49.576;10.990;2022-07-22T01:22:54;8.93;;;8.03;;
3329;SDS011;1677;49.576;10.990;2022-07-22T01:25:20;8.23;;;7.47;;
3329;SDS011;1677;49.576;10.990;2022-07-22T01:27:46;9.03;;;7.73;;
3329;SDS011;1677;49.576;10.990;2022-07-22T01:30:11;9.00;;;8.13;;
3329;SDS011;1677;49.576;10.990;2022-07-22T01:32:37;9.90;;;8.63;;
3329;SDS011;1677;49.576;10.990;2022-07-22T01:35:03;8.50;;;7.70;;
3329;SDS011;1677;49.576;10.990;2022-07-22T01:37:29;10.40;;;8.87;;
3329;SDS011;1677;49.576;10.990;2022-07-22T01:39:56;8.80;;;8.00;;
3329;SDS011;1677;49.576;10.990;2022-07-22T01:42:22;8.40;;;7.60;;
3329;SDS011;1677;49.576;10.990;2022-07-22T01:44:47;8.20;;;7.40;;
3329;SDS011;1677;49.576;10.990;2022-07-22T01:47:13;9.90;;;8.03;;
3329;SDS011;1677;49.576;10.990;2022-07-22T01:49:38;8.23;;;7.50;;
3329;SDS011;1677;49.576;10.990;2022-07-22T01:52:04;9.30;;;8.50;;
3329;SDS011;1677;49.576;10.990;2022-07-22T01:54:30;7.57;;;6.97;;
3329;SDS011;1677;49.576;10.990;2022-07-22T01:56:56;9.97;;;8.53;;
3329;SDS011;1677;49.576;10.990;2022-07-22T01:59:22;8.90;;;7.97;;
3329;SDS011;1677;49.576;10.990;2022-07-22T02:01:47;9.27;;;8.47;;
3329;SDS011;1677;49.576;10.990;2022-07-22T02:04:13;9.57;;;8.67;;
3329;SDS011;1677;49.576;10.990;2022-07-22T02:06:39;9.73;;;8.83;;
3329;SDS011;1677;49.576;10.990;2022-07-22T02:09:05;9.20;;;8.30;;
3329;SDS011;1677;49.576;10.990;2022-07-22T02:11:31;9.63;;;8.57;;
3329;SDS011;1677;49.576;10.990;2022-07-22T02:13:56;10.80;;;8.43;;
3329;SDS011;1677;49.576;10.990;2022-07-22T02:16:22;10.10;;;8.33;;
3329;SDS011;1677;49.576;10.990;2022-07-22T02:18:48;10.30;;;9.30;;
3329;SDS011;1677;49.576;10.990;2022-07-22T02:21:13;9.27;;;8.37;;
3329;SDS011;1677;49.576;10.990;2022-07-22T02:23:39;9.37;;;8.33;;
3329;SDS011;1677;49.576;10.990;2022-07-22T02:26:05;8.60;;;7.80;;
3329;SDS011;1677;49.576;10.990;2022-07-22T02:28:30;9.20;;;8.20;;
3329;SDS011;1677;49.576;10.990;2022-07-22T02:30:56;9.50;;;8.50;;
3329;SDS011;1677;49.576;10.990;2022-07-22T02:33:22;9.47;;;8.30;;
3329;SDS011;1677;49.576;10.990;2022-07-22T02:35:47;9.40;;;8.40;;
3329;SDS011;1677;49.576;10.990;2022-07-22T02:38:13;9.40;;;8.03;;
3329;SDS011;1677;49.576;10.990;2022-07-22T02:40:38;8.87;;;8.07;;
3329;SDS011;1677;49.576;10.990;2022-07-22T02:43:04;8.50;;;7.70;;
3329;SDS011;1677;49.576;10.990;2022-07-22T02:45:31;9.75;;;8.57;;
3329;SDS011;1677;49.576;10.990;2022-07-22T02:47:57;9.27;;;8.07;;
3329;SDS011;1677;49.576;10.990;2022-07-22T02:50:23;9.43;;;8.53;;
3329;SDS011;1677;49.576;10.990;2022-07-22T02:52:49;9.60;;;8.50;;
3329;SDS011;1677;49.576;10.990;2022-07-22T02:55:16;8.73;;;7.20;;
3329;SDS011;1677;49.576;10.990;2022-07-22T02:57:42;9.75;;;8.85;;
3329;SDS011;1677;49.576;10.990;2022-07-22T03:00:09;9.43;;;8.63;;
3329;SDS011;1677;49.576;10.990;2022-07-22T03:02:37;8.07;;;7.37;;
3329;SDS011;1677;49.576;10.990;2022-07-22T03:05:03;8.73;;;7.87;;
3329;SDS011;1677;49.576;10.990;2022-07-22T03:07:29;9.20;;;8.40;;
3329;SDS011;1677;49.576;10.990;2022-07-22T03:09:55;9.63;;;8.57;;
3329;SDS011;1677;49.576;10.990;2022-07-22T03:12:21;9.30;;;7.60;;
3329;SDS011;1677;49.576;10.990;2022-07-22T03:14:46;9.10;;;8.20;;
3329;SDS011;1677;49.576;10.990;2022-07-22T03:17:12;9.07;;;8.27;;
3329;SDS011;1677;49.576;10.990;2022-07-22T03:19:38;9.17;;;8.27;;
3329;SDS011;1677;49.576;10.990;2022-07-22T03:22:03;8.47;;;7.67;;
3329;SDS011;1677;49.576;10.990;2022-07-22T03:24:29;9.33;;;8.03;;
3329;SDS011;1677;49.576;10.990;2022-07-22T03:26:54;9.23;;;8.30;;
3329;SDS011;1677;49.576;10.990;2022-07-22T03:29:20;10.40;;;7.97;;
3329;SDS011;1677;49.576;10.990;2022-07-22T03:31:45;10.03;;;9.03;;
3329;SDS011;1677;49.576;10.990;2022-07-22T03:34:11;11.23;;;10.23;;
3329;SDS011;1677;49.576;10.990;2022-07-22T03:36:37;11.30;;;9.13;;
3329;SDS011;1677;49.576;10.990;2022-07-22T03:39:02;9.77;;;8.90;;
3329;SDS011;1677;49.576;10.990;2022-07-22T03:41:28;10.00;;;9.10;;
3329;SDS011;1677;49.576;10.990;2022-07-22T03:43:54;10.90;;;9.33;;
3329;SDS011;1677;49.576;10.990;2022-07-22T03:46:19;11.97;;;8.80;;
3329;SDS011;1677;49.576;10.990;2022-07-22T03:48:45;9.60;;;8.60;;
3329;SDS011;1677;49.576;10.990;2022-07-22T03:51:10;9.43;;;8.53;;
3329;SDS011;1677;49.576;10.990;2022-07-22T03:53:36;8.97;;;8.17;;
3329;SDS011;1677;49.576;10.990;2022-07-22T03:56:02;10.00;;;8.83;;
3329;SDS011;1677;49.576;10.990;2022-07-22T03:58:28;10.83;;;9.20;;
3329;SDS011;1677;49.576;10.990;2022-07-22T04:00:54;9.87;;;8.97;;
3329;SDS011;1677;49.576;10.990;2022-07-22T04:03:20;10.80;;;9.53;;
3329;SDS011;1677;49.576;10.990;2022-07-22T04:05:46;10.60;;;9.07;;
3329;SDS011;1677;49.576;10.990;2022-07-22T04:08:12;9.33;;;8.43;;
3329;SDS011;1677;49.576;10.990;2022-07-22T04:10:38;11.73;;;10.00;;
3329;SDS011;1677;49.576;10.990;2022-07-22T04:13:04;11.60;;;10.50;;
3329;SDS011;1677;49.576;10.990;2022-07-22T04:15:30;11.48;;;10.05;;
3329;SDS011;1677;49.576;10.990;2022-07-22T04:17:56;12.17;;;10.97;;
3329;SDS011;1677;49.576;10.990;2022-07-22T04:20:22;9.70;;;8.70;;
3329;SDS011;1677;49.576;10.990;2022-07-22T04:22:47;11.03;;;9.63;;
3329;SDS011;1677;49.576;10.990;2022-07-22T04:25:13;8.97;;;8.17;;
3329;SDS011;1677;49.576;10.990;2022-07-22T04:27:39;10.00;;;9.10;;
3329;SDS011;1677;49.576;10.990;2022-07-22T04:30:05;10.30;;;9.30;;
3329;SDS011;1677;49.576;10.990;2022-07-22T04:32:32;9.90;;;9.00;;
3329;SDS011;1677;49.576;10.990;2022-07-22T04:34:57;9.23;;;8.30;;
3329;SDS011;1677;49.576;10.990;2022-07-22T04:37:23;9.73;;;8.83;;
3329;SDS011;1677;49.576;10.990;2022-07-22T04:39:49;9.70;;;8.77;;
3329;SDS011;1677;49.576;10.990;2022-07-22T04:42:14;11.50;;;9.60;;
3329;SDS011;1677;49.576;10.990;2022-07-22T04:44:40;10.80;;;9.40;;
3329;SDS011;1677;49.576;10.990;2022-07-22T04:47:05;9.67;;;8.73;;
3329;SDS011;1677;49.576;10.990;2022-07-22T04:49:31;12.00;;;10.90;;
3329;SDS011;1677;49.576;10.990;2022-07-22T04:51:57;11.10;;;10.00;;
3329;SDS011;1677;49.576;10.990;2022-07-22T04:54:22;10.83;;;9.30;;
3329;SDS011;1677;49.576;10.990;2022-07-22T04:56:48;11.80;;;10.70;;
3329;SDS011;1677;49.576;10.990;2022-07-22T04:59:14;12.80;;;9.30;;
3329;SDS011;1677;49.576;10.990;2022-07-22T05:01:39;10.40;;;9.40;;
3329;SDS011;1677;49.576;10.990;2022-07-22T05:04:05;11.00;;;10.00;;
3329;SDS011;1677;49.576;10.990;2022-07-22T05:06:30;11.50;;;10.40;;
3329;SDS011;1677;49.576;10.990;2022-07-22T05:08:56;10.40;;;9.30;;
3329;SDS011;1677;49.576;10.990;2022-07-22T05:11:22;12.77;;;10.23;;
3329;SDS011;1677;49.576;10.990;2022-07-22T05:13:47;11.73;;;10.57;;
3329;SDS011;1677;49.576;10.990;2022-07-22T05:16:13;10.47;;;9.00;;
3329;SDS011;1677;49.576;10.990;2022-07-22T05:18:39;11.23;;;10.03;;
3329;SDS011;1677;49.576;10.990;2022-07-22T05:21:04;11.27;;;10.03;;
3329;SDS011;1677;49.576;10.990;2022-07-22T05:23:30;11.97;;;10.77;;
3329;SDS011;1677;49.576;10.990;2022-07-22T05:25:57;11.23;;;10.13;;
3329;SDS011;1677;49.576;10.990;2022-07-22T05:28:22;12.13;;;10.97;;
3329;SDS011;1677;49.576;10.990;2022-07-22T05:30:48;11.70;;;10.53;;
3329;SDS011;1677;49.576;10.990;2022-07-22T05:33:14;12.77;;;11.47;;
3329;SDS011;1677;49.576;10.990;2022-07-22T05:35:39;11.57;;;10.40;;
3329;SDS011;1677;49.576;10.990;2022-07-22T05:38:05;11.87;;;10.67;;
3329;SDS011;1677;49.576;10.990;2022-07-22T05:40:31;14.63;;;10.37;;
3329;SDS011;1677;49.576;10.990;2022-07-22T05:42:57;10.50;;;9.40;;
3329;SDS011;1677;49.576;10.990;2022-07-22T05:45:23;12.13;;;10.40;;
3329;SDS011;1677;49.576;10.990;2022-07-22T05:47:49;11.63;;;10.43;;
3329;SDS011;1677;49.576;10.990;2022-07-22T05:50:15;13.40;;;10.10;;
3329;SDS011;1677;49.576;10.990;2022-07-22T05:52:40;12.03;;;10.67;;
3329;SDS011;1677;49.576;10.990;2022-07-22T05:55:06;11.10;;;10.00;;
3329;SDS011;1677;49.576;10.990;2022-07-22T05:57:32;10.80;;;9.70;;
3329;SDS011;1677;49.576;10.990;2022-07-22T05:59:58;10.17;;;9.10;;
3329;SDS011;1677;49.576;10.990;2022-07-22T06:02:24;11.50;;;10.40;;
3329;SDS011;1677;49.576;10.990;2022-07-22T06:04:50;15.53;;;10.50;;
3329;SDS011;1677;49.576;10.990;2022-07-22T06:07:15;10.30;;;9.30;;
3329;SDS011;1677;49.576;10.990;2022-07-22T06:09:41;10.97;;;9.80;;
3329;SDS011;1677;49.576;10.990;2022-07-22T06:12:07;10.47;;;9.40;;
3329;SDS011;1677;49.576;10.990;2022-07-22T06:14:32;11.13;;;10.03;;
3329;SDS011;1677;49.576;10.990;2022-07-22T06:16:58;11.57;;;10.35;;
3329;SDS011;1677;49.576;10.990;2022-07-22T06:19:24;10.83;;;9.83;;
3329;SDS011;1677;49.576;10.990;2022-07-22T06:21:50;10.17;;;9.27;;
3329;SDS011;1677;49.576;10.990;2022-07-22T06:24:16;10.17;;;8.70;;
3329;SDS011;1677;49.576;10.990;2022-07-22T06:26:42;8.97;;;8.07;;
3329;SDS011;1677;49.576;10.990;2022-07-22T06:29:08;8.40;;;7.57;;
3329;SDS011;1677;49.576;10.990;2022-07-22T06:31:34;18.63;;;8.10;;
3329;SDS011;1677;49.576;10.990;2022-07-22T06:33:59;8.50;;;7.53;;
3329;SDS011;1677;49.576;10.990;2022-07-22T06:36:25;9.60;;;8.70;;
3329;SDS011;1677;49.576;10.990;2022-07-22T06:38:50;8.63;;;7.83;;
3329;SDS011;1677;49.576;10.990;2022-07-22T06:41:16;8.07;;;7.37;;
3329;SDS011;1677;49.576;10.990;2022-07-22T06:43:44;9.83;;;8.93;;
3329;SDS011;1677;49.576;10.990;2022-07-22T06:46:10;11.00;;;8.10;;
3329;SDS011;1677;49.576;10.990;2022-07-22T06:48:36;9.70;;;8.80;;
3329;SDS011;1677;49.576;10.990;2022-07-22T06:51:01;9.03;;;7.20;;
3329;SDS011;1677;49.576;10.990;2022-07-22T06:53:27;11.93;;;8.43;;
3329;SDS011;1677;49.576;10.990;2022-07-22T06:55:53;9.43;;;8.53;;
3329;SDS011;1677;49.576;10.990;2022-07-22T06:58:19;8.77;;;7.53;;
3329;SDS011;1677;49.576;10.990;2022-07-22T07:00:44;10.83;;;8.17;;
3329;SDS011;1677;49.576;10.990;2022-07-22T07:03:10;8.33;;;7.53;;
3329;SDS011;1677;49.576;10.990;2022-07-22T07:05:36;10.07;;;8.23;;
3329;SDS011;1677;49.576;10.990;2022-07-22T07:08:02;9.13;;;8.33;;
3329;SDS011;1677;49.576;10.990;2022-07-22T07:10:27;9.43;;;8.47;;
3329;SDS011;1677;49.576;10.990;2022-07-22T07:12:55;9.00;;;8.17;;
3329;SDS011;1677;49.576;10.990;2022-07-22T07:15:22;11.60;;;9.33;;
3329;SDS011;1677;49.576;10.990;2022-07-22T07:17:48;9.87;;;8.97;;
3329;SDS011;1677;49.576;10.990;2022-07-22T07:20:14;12.23;;;7.60;;
3329;SDS011;1677;49.576;10.990;2022-07-22T07:22:39;9.20;;;8.40;;
3329;SDS011;1677;49.576;10.990;2022-07-22T07:25:06;10.90;;;9.10;;
3329;SDS011;1677;49.576;10.990;2022-07-22T07:27:33;8.23;;;7.43;;
3329;SDS011;1677;49.576;10.990;2022-07-22T07:29:59;8.63;;;7.83;;
3329;SDS011;1677;49.576;10.990;2022-07-22T07:32:25;9.13;;;8.10;;
3329;SDS011;1677;49.576;10.990;2022-07-22T07:34:50;11.60;;;9.47;;
3329;SDS011;1677;49.576;10.990;2022-07-22T07:37:16;9.77;;;8.87;;
3329;SDS011;1677;49.576;10.990;2022-07-22T07:39:42;9.43;;;8.03;;
3329;SDS011;1677;49.576;10.990;2022-07-22T07:42:07;9.47;;;8.57;;
3329;SDS011;1677;49.576;10.990;2022-07-22T07:44:33;9.20;;;8.20;;
3329;SDS011;1677;49.576;10.990;2022-07-22T07:46:59;9.53;;;8.63;;
3329;SDS011;1677;49.576;10.990;2022-07-22T07:49:24;9.17;;;8.27;;
3329;SDS011;1677;49.576;10.990;2022-07-22T07:51:50;10.20;;;7.80;;
3329;SDS011;1677;49.576;10.990;2022-07-22T07:54:16;10.60;;;8.70;;
3329;SDS011;1677;49.576;10.990;2022-07-22T07:56:42;10.70;;;8.10;;
3329;SDS011;1677;49.576;10.990;2022-07-22T07:59:08;9.00;;;8.10;;
3329;SDS011;1677;49.576;10.990;2022-07-22T08:01:34;8.23;;;7.07;;
3329;SDS011;1677;49.576;10.990;2022-07-22T08:03:59;8.70;;;7.80;;
3329;SDS011;1677;49.576;10.990;2022-07-22T08:06:25;9.97;;;9.07;;
3329;SDS011;1677;49.576;10.990;2022-07-22T08:08:50;8.70;;;7.80;;
3329;SDS011;1677;49.576;10.990;2022-07-22T08:11:16;10.40;;;7.33;;
3329;SDS011;1677;49.576;10.990;2022-07-22T08:13:42;7.80;;;6.93;;
3329;SDS011;1677;49.576;10.990;2022-07-22T08:16:07;9.60;;;8.70;;
3329;SDS011;1677;49.576;10.990;2022-07-22T08:18:33;8.77;;;7.97;;
3329;SDS011;1677;49.576;10.990;2022-07-22T08:20:59;8.70;;;7.90;;
3329;SDS011;1677;49.576;10.990;2022-07-22T08:23:24;10.67;;;8.47;;
3329;SDS011;1677;49.576;10.990;2022-07-22T08:25:50;11.13;;;8.23;;
3329;SDS011;1677;49.576;10.990;2022-07-22T08:28:16;9.37;;;8.47;;
3329;SDS011;1677;49.576;10.990;2022-07-22T08:30:42;9.63;;;7.77;;
3329;SDS011;1677;49.576;10.990;2022-07-22T08:33:07;8.67;;;7.77;;
3329;SDS011;1677;49.576;10.990;2022-07-22T08:35:34;8.00;;;7.20;;
3329;SDS011;1677;49.576;10.990;2022-07-22T08:37:59;8.50;;;7.70;;
3329;SDS011;1677;49.576;10.990;2022-07-22T08:40:25;9.33;;;8.43;;
3329;SDS011;1677;49.576;10.990;2022-07-22T08:42:51;8.73;;;7.93;;
3329;SDS011;1677;49.576;10.990;2022-07-22T08:45:17;8.60;;;7.80;;
3329;SDS011;1677;49.576;10.990;2022-07-22T08:47:44;8.90;;;7.67;;
3329;SDS011;1677;49.576;10.990;2022-07-22T08:50:10;9.20;;;8.30;;
3329;SDS011;1677;49.576;10.990;2022-07-22T08:52:36;8.30;;;7.50;;
3329;SDS011;1677;49.576;10.990;2022-07-22T08:55:03;9.10;;;8.20;;
3329;SDS011;1677;49.576;10.990;2022-07-22T08:57:29;11.37;;;8.10;;
3329;SDS011;1677;49.576;10.990;2022-07-22T08:59:56;10.53;;;8.73;;
3329;SDS011;1677;49.576;10.990;2022-07-22T09:02:23;10.43;;;7.80;;
3329;SDS011;1677;49.576;10.990;2022-07-22T09:07:24;8.77;;;7.47;;
3329;SDS011;1677;49.576;10.990;2022-07-22T09:09:53;7.83;;;7.00;;
3329;SDS011;1677;49.576;10.990;2022-07-22T09:12:20;9.03;;;6.73;;
3329;SDS011;1677;49.576;10.990;2022-07-22T09:14:48;8.07;;;7.20;;
3329;SDS011;1677;49.576;10.990;2022-07-22T09:17:31;9.63;;;7.23;;
3329;SDS011;1677;49.576;10.990;2022-07-22T09:20:20;10.80;;;8.03;;
3329;SDS011;1677;49.576;10.990;2022-07-22T09:22:47;8.20;;;7.20;;
3329;SDS011;1677;49.576;10.990;2022-07-22T09:25:30;8.57;;;6.87;;
3329;SDS011;1677;49.576;10.990;2022-07-22T09:30:31;9.83;;;7.10;;
3329;SDS011;1677;49.576;10.990;2022-07-22T09:33:01;7.87;;;7.17;;
3329;SDS011;1677;49.576;10.990;2022-07-22T09:35:27;8.35;;;7.65;;
3329;SDS011;1677;49.576;10.990;2022-07-22T09:40:35;14.73;;;8.10;;
3329;SDS011;1677;49.576;10.990;2022-07-22T09:43:06;8.10;;;7.27;;
3329;SDS011;1677;49.576;10.990;2022-07-22T09:45:52;7.90;;;7.20;;
3329;SDS011;1677;49.576;10.990;2022-07-22T09:48:22;8.37;;;7.43;;
3329;SDS011;1677;49.576;10.990;2022-07-22T09:50:49;9.20;;;7.37;;
3329;SDS011;1677;49.576;10.990;2022-07-22T09:53:16;7.87;;;7.17;;
3329;SDS011;1677;49.576;10.990;2022-07-22T09:55:44;7.53;;;6.83;;
3329;SDS011;1677;49.576;10.990;2022-07-22T09:58:09;7.70;;;6.80;;
3329;SDS011;1677;49.576;10.990;2022-07-22T10:00:37;9.27;;;7.67;;
3329;SDS011;1677;49.576;10.990;2022-07-22T10:03:05;8.80;;;7.30;;
3329;SDS011;1677;49.576;10.990;2022-07-22T10:05:33;8.07;;;7.17;;
3329;SDS011;1677;49.576;10.990;2022-07-22T10:08:01;7.93;;;7.03;;
3329;SDS011;1677;49.576;10.990;2022-07-22T10:10:29;6.50;;;5.93;;
3329;SDS011;1677;49.576;10.990;2022-07-22T10:12:57;8.10;;;7.30;;
3329;SDS011;1677;49.576;10.990;2022-07-22T10:15:24;8.90;;;8.00;;
3329;SDS011;1677;49.576;10.990;2022-07-22T10:17:51;10.23;;;8.20;;
3329;SDS011;1677;49.576;10.990;2022-07-22T10:20:20;8.23;;;6.93;;
3329;SDS011;1677;49.576;10.990;2022-07-22T10:22:57;8.10;;;7.00;;
3329;SDS011;1677;49.576;10.990;2022-07-22T10:25:25;7.57;;;6.87;;
3329;SDS011;1677;49.576;10.990;2022-07-22T10:27:57;9.30;;;6.70;;
3329;SDS011;1677;49.576;10.990;2022-07-22T10:30:29;7.30;;;6.60;;
3329;SDS011;1677;49.576;10.990;2022-07-22T10:33:13;8.07;;;7.10;;
3329;SDS011;1677;49.576;10.990;2022-07-22T10:38:27;7.70;;;6.73;;
3329;SDS011;1677;49.576;10.990;2022-07-22T10:40:55;7.27;;;6.67;;
3329;SDS011;1677;49.576;10.990;2022-07-22T10:51:17;7.70;;;6.30;;
3329;SDS011;1677;49.576;10.990;2022-07-22T10:59:13;7.73;;;6.93;;
3329;SDS011;1677;49.576;10.990;2022-07-22T11:01:47;7.03;;;6.47;;
3329;SDS011;1677;49.576;10.990;2022-07-22T11:04:16;7.10;;;6.50;;
3329;SDS011;1677;49.576;10.990;2022-07-22T11:06:47;7.87;;;6.53;;
3329;SDS011;1677;49.576;10.990;2022-07-22T11:09:17;7.97;;;7.13;;
3329;SDS011;1677;49.576;10.990;2022-07-22T11:11:46;9.47;;;6.60;;
3329;SDS011;1677;49.576;10.990;2022-07-22T11:14:23;7.63;;;7.00;;
3329;SDS011;1677;49.576;10.990;2022-07-22T11:17:06;7.47;;;6.87;;
3329;SDS011;1677;49.576;10.990;2022-07-22T11:19:35;8.70;;;6.63;;
3329;SDS011;1677;49.576;10.990;2022-07-22T11:22:03;7.37;;;6.67;;
3329;SDS011;1677;49.576;10.990;2022-07-22T11:24:34;7.57;;;6.87;;
3329;SDS011;1677;49.576;10.990;2022-07-22T11:27:01;8.17;;;7.40;;
3329;SDS011;1677;49.576;10.990;2022-07-22T11:29:35;12.47;;;7.57;;
3329;SDS011;1677;49.576;10.990;2022-07-22T11:32:05;7.57;;;6.90;;
3329;SDS011;1677;49.576;10.990;2022-07-22T11:34:32;7.53;;;6.73;;
3329;SDS011;1677;49.576;10.990;2022-07-22T11:37:00;7.30;;;6.67;;
3329;SDS011;1677;49.576;10.990;2022-07-22T11:39:26;9.00;;;6.83;;
3329;SDS011;1677;49.576;10.990;2022-07-22T11:41:54;8.07;;;7.27;;
3329;SDS011;1677;49.576;10.990;2022-07-22T11:44:22;6.90;;;6.30;;
3329;SDS011;1677;49.576;10.990;2022-07-22T11:46:52;13.63;;;8.07;;
3329;SDS011;1677;49.576;10.990;2022-07-22T11:49:23;8.13;;;7.33;;
3329;SDS011;1677;49.576;10.990;2022-07-22T11:51:50;6.43;;;5.93;;
3329;SDS011;1677;49.576;10.990;2022-07-22T11:54:16;7.20;;;6.57;;
3329;SDS011;1677;49.576;10.990;2022-07-22T11:56:42;7.83;;;7.13;;
3329;SDS011;1677;49.576;10.990;2022-07-22T11:59:11;6.65;;;6.13;;
3329;SDS011;1677;49.576;10.990;2022-07-22T12:01:38;6.77;;;6.17;;
3329;SDS011;1677;49.576;10.990;2022-07-22T12:04:04;6.60;;;6.00;;
3329;SDS011;1677;49.576;10.990;2022-07-22T12:06:31;7.90;;;7.10;;
3329;SDS011;1677;49.576;10.990;2022-07-22T12:09:14;6.93;;;6.33;;
3329;SDS011;1677;49.576;10.990;2022-07-22T12:11:52;7.97;;;7.27;;
3329;SDS011;1677;49.576;10.990;2022-07-22T12:14:24;7.03;;;6.53;;
3329;SDS011;1677;49.576;10.990;2022-07-22T12:19:22;6.80;;;6.17;;
3329;SDS011;1677;49.576;10.990;2022-07-22T12:21:52;6.50;;;5.90;;
3329;SDS011;1677;49.576;10.990;2022-07-22T12:24:27;7.90;;;5.40;;
3329;SDS011;1677;49.576;10.990;2022-07-22T12:27:12;6.93;;;6.33;;
3329;SDS011;1677;49.576;10.990;2022-07-22T12:32:06;7.70;;;7.10;;
3329;SDS011;1677;49.576;10.990;2022-07-22T12:34:35;6.47;;;5.97;;
3329;SDS011;1677;49.576;10.990;2022-07-22T12:42:25;6.70;;;6.03;;
3329;SDS011;1677;49.576;10.990;2022-07-22T12:44:53;7.43;;;6.73;;
3329;SDS011;1677;49.576;10.990;2022-07-22T12:53:06;6.17;;;5.57;;
3329;SDS011;1677;49.576;10.990;2022-07-22T12:55:32;7.20;;;5.90;;
3329;SDS011;1677;49.576;10.990;2022-07-22T12:57:59;6.80;;;6.20;;
3329;SDS011;1677;49.576;10.990;2022-07-22T13:00:26;6.33;;;5.80;;
3329;SDS011;1677;49.576;10.990;2022-07-22T13:02:53;6.63;;;6.07;;
3329;SDS011;1677;49.576;10.990;2022-07-22T13:05:20;5.90;;;5.23;;
3329;SDS011;1677;49.576;10.990;2022-07-22T13:07:46;6.83;;;6.20;;
3329;SDS011;1677;49.576;10.990;2022-07-22T13:10:13;7.60;;;6.17;;
3329;SDS011;1677;49.576;10.990;2022-07-22T13:12:39;6.93;;;6.37;;
3329;SDS011;1677;49.576;10.990;2022-07-22T13:15:06;6.50;;;5.90;;
3329;SDS011;1677;49.576;10.990;2022-07-22T13:17:32;6.27;;;5.67;;
3329;SDS011;1677;49.576;10.990;2022-07-22T13:19:58;10.30;;;5.30;;
3329;SDS011;1677;49.576;10.990;2022-07-22T13:22:24;6.20;;;5.60;;
3329;SDS011;1677;49.576;10.990;2022-07-22T13:24:49;6.57;;;6.00;;
3329;SDS011;1677;49.576;10.990;2022-07-22T13:27:15;10.63;;;6.13;;
3329;SDS011;1677;49.576;10.990;2022-07-22T13:29:41;7.13;;;6.53;;
3329;SDS011;1677;49.576;10.990;2022-07-22T13:32:07;7.20;;;6.63;;
3329;SDS011;1677;49.576;10.990;2022-07-22T13:34:32;6.10;;;5.60;;
3329;SDS011;1677;49.576;10.990;2022-07-22T13:36:58;7.00;;;5.57;;
3329;SDS011;1677;49.576;10.990;2022-07-22T13:39:25;8.00;;;5.67;;
3329;SDS011;1677;49.576;10.990;2022-07-22T13:41:50;6.10;;;5.50;;
3329;SDS011;1677;49.576;10.990;2022-07-22T13:44:16;7.77;;;6.40;;
3329;SDS011;1677;49.576;10.990;2022-07-22T13:46:42;7.40;;;6.80;;
3329;SDS011;1677;49.576;10.990;2022-07-22T13:49:07;6.77;;;6.07;;
3329;SDS011;1677;49.576;10.990;2022-07-22T13:51:33;6.10;;;5.60;;
3329;SDS011;1677;49.576;10.990;2022-07-22T13:53:58;6.63;;;6.03;;
3329;SDS011;1677;49.576;10.990;2022-07-22T13:56:24;10.30;;;6.40;;
3329;SDS011;1677;49.576;10.990;2022-07-22T13:58:50;10.47;;;6.27;;
3329;SDS011;1677;49.576;10.990;2022-07-22T14:01:16;5.80;;;5.30;;
3329;SDS011;1677;49.576;10.990;2022-07-22T14:03:42;5.33;;;4.93;;
3329;SDS011;1677;49.576;10.990;2022-07-22T14:06:07;6.90;;;6.20;;
3329;SDS011;1677;49.576;10.990;2022-07-22T14:08:36;6.83;;;5.60;;
3329;SDS011;1677;49.576;10.990;2022-07-22T14:11:02;7.07;;;5.73;;
3329;SDS011;1677;49.576;10.990;2022-07-22T14:13:28;6.20;;;5.70;;
3329;SDS011;1677;49.576;10.990;2022-07-22T14:15:54;6.03;;;5.53;;
3329;SDS011;1677;49.576;10.990;2022-07-22T14:18:20;6.73;;;6.13;;
3329;SDS011;1677;49.576;10.990;2022-07-22T14:20:45;6.53;;;5.93;;
3329;SDS011;1677;49.576;10.990;2022-07-22T14:23:11;12.53;;;6.57;;
3329;SDS011;1677;49.576;10.990;2022-07-22T14:25:38;8.87;;;5.80;;
3329;SDS011;1677;49.576;10.990;2022-07-22T14:28:05;6.73;;;6.13;;
3329;SDS011;1677;49.576;10.990;2022-07-22T14:30:32;6.10;;;5.53;;
3329;SDS011;1677;49.576;10.990;2022-07-22T14:32:59;7.33;;;6.63;;
3329;SDS011;1677;49.576;10.990;2022-07-22T14:35:24;6.07;;;5.47;;
3329;SDS011;1677;49.576;10.990;2022-07-22T14:37:50;6.03;;;5.63;;
3329;SDS011;1677;49.576;10.990;2022-07-22T14:40:16;6.13;;;5.63;;
3329;SDS011;1677;49.576;10.990;2022-07-22T14:42:42;5.77;;;5.37;;
3329;SDS011;1677;49.576;10.990;2022-07-22T14:45:08;6.73;;;6.13;;
3329;SDS011;1677;49.576;10.990;2022-07-22T14:47:37;6.30;;;5.80;;
3329;SDS011;1677;49.576;10.990;2022-07-22T14:50:03;6.20;;;5.70;;
3329;SDS011;1677;49.576;10.990;2022-07-22T14:52:29;6.57;;;5.87;;
3329;SDS011;1677;49.576;10.990;2022-07-22T14:54:55;7.93;;;6.20;;
3329;SDS011;1677;49.576;10.990;2022-07-22T14:57:21;5.80;;;5.30;;
3329;SDS011;1677;49.576;10.990;2022-07-22T14:59:47;5.97;;;5.47;;
3329;SDS011;1677;49.576;10.990;2022-07-22T15:02:12;6.27;;;5.77;;
3329;SDS011;1677;49.576;10.990;2022-07-22T15:04:38;6.40;;;5.80;;
3329;SDS011;1677;49.576;10.990;2022-07-22T15:07:03;6.10;;;5.50;;
3329;SDS011;1677;49.576;10.990;2022-07-22T15:09:29;8.00;;;6.10;;
3329;SDS011;1677;49.576;10.990;2022-07-22T15:11:54;6.60;;;6.00;;
3329;SDS011;1677;49.576;10.990;2022-07-22T15:14:20;10.00;;;6.57;;
3329;SDS011;1677;49.576;10.990;2022-07-22T15:16:46;6.80;;;5.93;;
3329;SDS011;1677;49.576;10.990;2022-07-22T15:19:11;7.20;;;6.50;;
3329;SDS011;1677;49.576;10.990;2022-07-22T15:21:37;6.77;;;6.17;;
3329;SDS011;1677;49.576;10.990;2022-07-22T15:24:03;6.30;;;5.80;;
3329;SDS011;1677;49.576;10.990;2022-07-22T15:26:30;10.00;;;6.23;;
3329;SDS011;1677;49.576;10.990;2022-07-22T15:28:56;7.87;;;6.17;;
3329;SDS011;1677;49.576;10.990;2022-07-22T15:31:21;6.53;;;6.03;;
3329;SDS011;1677;49.576;10.990;2022-07-22T15:33:47;6.70;;;6.20;;
3329;SDS011;1677;49.576;10.990;2022-07-22T15:36:14;6.83;;;6.13;;